Time;durP1;ratioP1;P1;durP2;ratioP2;P2;SDS_P1;SDS_P2;PMS_P1;PMS_P2;Temp;Humidity;BMP_temperature;BMP_pressure;BME280_temperature;BME280_humidity;BME280_pressure;Samples;Min_cycle;Max_cycle;Signal;HPM_P1;HPM_P2
2022/12/20 00:00:56;;;;;;;1.90;1.40;;;7.20;46.50;;;;;;5012566;28;20204;-71
2022/12/20 00:03:21;;;;;;;1.77;1.20;;;7.00;46.60;;;;;;5003193;28;20959;-70
2022/12/20 00:05:48;;;;;;;3.60;2.03;;;6.90;46.90;;;;;;5005749;28;20185;-70
2022/12/20 00:08:14;;;;;;;2.03;1.45;;;6.80;48.70;;;;;;5011830;28;20176;-70
2022/12/20 00:10:43;;;;;;;3.50;2.45;;;6.70;48.20;;;;;;5011553;28;20185;-71
2022/12/20 00:13:09;;;;;;;4.18;2.78;;;6.90;47.60;;;;;;5010384;28;20177;-74
2022/12/20 00:15:36;;;;;;;1.60;1.10;;;7.30;46.10;;;;;;5005490;28;20192;-72
2022/12/20 00:18:01;;;;;;;4.60;2.15;;;7.10;46.90;;;;;;5012419;28;20178;-72
2022/12/20 00:20:27;;;;;;;6.27;3.17;;;7.10;46.60;;;;;;5011558;28;20260;-71
2022/12/20 00:22:53;;;;;;;2.25;1.48;;;7.00;46.90;;;;;;5010048;28;20184;-72
2022/12/20 00:25:19;;;;;;;2.70;2.20;;;6.90;46.40;;;;;;5012144;28;20205;-71
2022/12/20 00:27:46;;;;;;;6.47;2.95;;;7.20;46.00;;;;;;4992879;28;20582;-72
2022/12/20 00:30:12;;;;;;;1.67;1.20;;;7.10;45.90;;;;;;4994591;28;20239;-72
2022/12/20 00:32:38;;;;;;;2.38;1.90;;;6.90;45.90;;;;;;5003601;28;20185;-71
2022/12/20 00:35:04;;;;;;;2.93;2.23;;;6.90;46.00;;;;;;5016331;28;20619;-75
2022/12/20 00:37:30;;;;;;;2.40;2.00;;;6.80;46.80;;;;;;5007580;28;20212;-71
2022/12/20 00:39:55;;;;;;;1.97;1.40;;;6.40;48.50;;;;;;5012301;28;20506;-69
2022/12/20 00:42:21;;;;;;;2.43;1.93;;;6.40;48.70;;;;;;5011440;28;20172;-71
2022/12/20 00:44:46;;;;;;;1.70;1.20;;;6.60;48.20;;;;;;5010509;28;20203;-70
2022/12/20 00:47:12;;;;;;;3.10;1.67;;;6.60;48.50;;;;;;5006104;28;20641;-70
2022/12/20 00:49:38;;;;;;;1.80;1.40;;;6.50;48.10;;;;;;5005339;28;20173;-69
2022/12/20 00:52:03;;;;;;;1.70;1.30;;;6.70;47.70;;;;;;5012120;28;20204;-69
2022/12/20 00:54:29;;;;;;;21.87;2.50;;;6.70;47.00;;;;;;5010751;28;20196;-69
2022/12/20 00:56:54;;;;;;;2.00;1.57;;;6.80;47.50;;;;;;5009913;28;20264;-70
2022/12/20 00:59:20;;;;;;;3.77;2.70;;;6.80;47.40;;;;;;5001455;28;20202;-71
2022/12/20 01:01:46;;;;;;;2.10;1.60;;;6.90;48.10;;;;;;4992355;28;20556;-70
2022/12/20 01:04:12;;;;;;;1.90;1.50;;;7.30;47.20;;;;;;4995084;28;20213;-69
2022/12/20 01:06:38;;;;;;;2.25;1.77;;;7.40;46.60;;;;;;5008858;28;20177;-70
2022/12/20 01:09:04;;;;;;;3.90;2.10;;;7.60;46.10;;;;;;5011291;28;20185;-69
2022/12/20 01:11:32;;;;;;;3.92;2.60;;;7.50;46.50;;;;;;5007747;28;20253;-69
2022/12/20 01:14:00;;;;;;;1.60;1.20;;;7.30;46.40;;;;;;4995224;28;20196;-70
2022/12/20 01:16:29;;;;;;;1.77;1.30;;;6.90;47.40;;;;;;5010423;28;20185;-69
2022/12/20 01:18:54;;;;;;;2.85;1.98;;;7.30;47.20;;;;;;5010259;28;20189;-69
2022/12/20 01:21:23;;;;;;;2.50;1.90;;;7.40;46.30;;;;;;5011264;28;20184;-70
2022/12/20 01:23:48;;;;;;;2.40;1.90;;;6.90;46.90;;;;;;5010622;28;20197;-69
2022/12/20 01:26:18;;;;;;;2.10;1.80;;;6.80;47.70;;;;;;5003495;28;20176;-69
2022/12/20 01:28:45;;;;;;;1.58;1.10;;;6.80;47.90;;;;;;5010086;28;20269;-70
2022/12/20 01:31:15;;;;;;;3.33;1.90;;;6.90;47.70;;;;;;5011867;28;20235;-70
2022/12/20 01:33:41;;;;;;;4.28;2.05;;;7.10;47.10;;;;;;5005813;28;20205;-76
2022/12/20 01:36:11;;;;;;;2.63;2.00;;;7.00;47.00;;;;;;5013460;28;20200;-71
2022/12/20 01:38:36;;;;;;;2.60;1.60;;;7.00;47.00;;;;;;5015579;28;20177;-69
2022/12/20 01:41:02;;;;;;;2.00;1.50;;;7.40;45.60;;;;;;5015009;28;20205;-70
2022/12/20 01:43:58;;;;;;;1.65;1.20;;;7.40;45.80;;;;;;5006394;28;20379;-70
2022/12/20 01:46:26;;;;;;;2.00;1.48;;;6.80;47.90;;;;;;5012510;28;20185;-70
2022/12/20 01:49:07;;;;;;;2.25;1.70;;;7.10;47.30;;;;;;5015284;28;20708;-70
2022/12/20 01:51:38;;;;;;;1.83;1.30;;;7.10;47.80;;;;;;5006637;28;20189;-69
2022/12/20 01:54:09;;;;;;;1.77;1.35;;;7.00;47.00;;;;;;5015101;28;20204;-72
2022/12/20 01:56:35;;;;;;;2.55;1.85;;;7.10;47.10;;;;;;5011496;28;20235;-70
2022/12/20 01:59:01;;;;;;;2.08;1.50;;;7.00;47.00;;;;;;5015039;28;20185;-69
2022/12/20 02:01:27;;;;;;;1.80;1.40;;;7.00;47.70;;;;;;4994066;28;20208;-70
2022/12/20 02:03:54;;;;;;;2.20;1.40;;;7.10;46.80;;;;;;4995591;28;20237;-69
2022/12/20 02:06:22;;;;;;;1.60;1.20;;;7.40;46.40;;;;;;5004054;28;20220;-69
2022/12/20 02:08:51;;;;;;;1.60;1.20;;;7.40;45.90;;;;;;5011722;28;20205;-71
2022/12/20 02:11:51;;;;;;;1.80;1.30;;;7.40;45.90;;;;;;5003776;28;20743;-70
2022/12/20 02:14:19;;;;;;;2.00;1.42;;;7.20;47.00;;;;;;5012817;28;20212;-70
2022/12/20 02:17:19;;;;;;;2.30;1.90;;;7.10;48.20;;;;;;5000311;28;20192;-69
2022/12/20 02:19:47;;;;;;;2.13;1.77;;;6.70;51.10;;;;;;5002721;28;20213;-69
2022/12/20 02:22:21;;;;;;;1.60;1.20;;;6.70;51.00;;;;;;5012412;28;20542;-69
2022/12/20 02:25:13;;;;;;;2.13;1.40;;;6.80;50.10;;;;;;5007211;28;20201;-71
2022/12/20 02:28:02;;;;;;;1.58;1.17;;;6.50;51.90;;;;;;4994937;28;20178;-69
2022/12/20 02:30:35;;;;;;;1.50;1.10;;;5.90;54.90;;;;;;5001578;28;20670;-70
2022/12/20 02:33:10;;;;;;;2.67;1.80;;;5.40;59.40;;;;;;5013594;28;20243;-73
2022/12/20 02:35:37;;;;;;;17.55;2.53;;;5.50;56.70;;;;;;5012020;28;20195;-69
2022/12/20 02:38:23;;;;;;;2.40;1.67;;;5.60;57.70;;;;;;5005406;28;20224;-70
2022/12/20 02:40:55;;;;;;;2.55;1.75;;;6.10;53.90;;;;;;5014360;28;20224;-70
2022/12/20 02:46:09;;;;;;;1.98;1.45;;;5.40;57.80;;;;;;5012793;28;20659;-72
2022/12/20 02:48:37;;;;;;;1.60;1.20;;;5.70;55.90;;;;;;5012429;28;20192;-69
2022/12/20 02:51:05;;;;;;;1.95;1.63;;;5.60;55.80;;;;;;5007072;28;20648;-72
2022/12/20 02:53:31;;;;;;;1.90;1.40;;;5.60;56.70;;;;;;5012698;28;20213;-70
2022/12/20 02:56:21;;;;;;;2.35;1.65;;;5.70;56.30;;;;;;5014246;28;20170;-72
2022/12/20 02:59:08;;;;;;;2.47;2.00;;;5.90;55.00;;;;;;5014237;28;20217;-70
2022/12/20 03:01:54;;;;;;;2.00;1.60;;;5.90;54.60;;;;;;5012430;28;20586;-69
2022/12/20 03:04:25;;;;;;;2.10;1.30;;;5.90;54.60;;;;;;5013189;28;20223;-69
2022/12/20 03:07:01;;;;;;;1.80;1.40;;;6.60;51.80;;;;;;5014081;28;20174;-69
2022/12/20 03:09:29;;;;;;;1.70;1.30;;;6.90;49.50;;;;;;5013003;28;20239;-70
2022/12/20 03:11:54;;;;;;;2.97;1.85;;;7.10;48.20;;;;;;5011430;28;20189;-69
2022/12/20 03:14:20;;;;;;;1.80;1.20;;;7.20;47.30;;;;;;5010316;28;20209;-70
2022/12/20 03:16:46;;;;;;;3.83;2.40;;;7.20;47.90;;;;;;5013047;28;20205;-69
2022/12/20 03:19:11;;;;;;;1.60;1.30;;;7.20;47.20;;;;;;5013538;28;20421;-71
2022/12/20 03:21:37;;;;;;;3.77;1.77;;;7.20;47.10;;;;;;5013848;28;20576;-69
2022/12/20 03:24:03;;;;;;;2.00;1.50;;;7.10;47.10;;;;;;5011650;28;20205;-70
2022/12/20 03:26:28;;;;;;;2.60;1.90;;;7.10;47.00;;;;;;5012096;28;20181;-70
2022/12/20 03:28:54;;;;;;;3.00;1.87;;;7.40;46.80;;;;;;5013374;28;20416;-70
2022/12/20 03:31:20;;;;;;;2.30;1.60;;;7.70;45.70;;;;;;5013242;28;20180;-72
2022/12/20 03:33:45;;;;;;;1.57;1.10;;;7.50;45.30;;;;;;5013080;28;20267;-69
2022/12/20 03:36:11;;;;;;;3.13;2.47;;;7.40;46.00;;;;;;5011553;28;20653;-70
2022/12/20 03:38:37;;;;;;;1.80;1.60;;;7.10;48.20;;;;;;5007049;28;20693;-69
2022/12/20 03:41:02;;;;;;;2.30;1.40;;;7.10;47.50;;;;;;5009826;28;20224;-71
2022/12/20 03:43:28;;;;;;;3.47;2.53;;;7.00;47.70;;;;;;5013037;28;20533;-69
2022/12/20 03:45:53;;;;;;;3.70;2.37;;;7.00;48.50;;;;;;5009940;28;20204;-71
2022/12/20 03:48:19;;;;;;;2.60;1.73;;;7.10;47.80;;;;;;5011919;28;20551;-70
2022/12/20 03:50:44;;;;;;;3.20;2.03;;;7.20;47.10;;;;;;5013491;28;20185;-72
2022/12/20 03:53:10;;;;;;;3.40;1.63;;;7.40;46.50;;;;;;5012972;28;20174;-70
2022/12/20 03:55:36;;;;;;;3.77;1.80;;;7.30;46.60;;;;;;5012366;28;20656;-69
2022/12/20 03:58:01;;;;;;;2.10;1.47;;;7.50;46.20;;;;;;5008956;28;20208;-70
2022/12/20 04:00:27;;;;;;;9.60;3.43;;;7.40;46.10;;;;;;5011629;28;20217;-70
2022/12/20 04:02:53;;;;;;;2.17;2.03;;;7.60;45.60;;;;;;5005860;28;20170;-72
2022/12/20 04:07:54;;;;;;;1.60;1.15;;;7.50;45.80;;;;;;5008201;28;20373;-71
2022/12/20 04:10:20;;;;;;;4.40;2.43;;;7.50;46.30;;;;;;5012168;28;20217;-71
2022/12/20 04:12:45;;;;;;;4.27;2.27;;;7.50;45.80;;;;;;5011969;28;20189;-71
2022/12/20 04:15:11;;;;;;;1.53;1.37;;;7.40;47.30;;;;;;5011708;28;20261;-71
2022/12/20 04:17:37;;;;;;;1.60;1.10;;;7.60;46.40;;;;;;5012285;28;20582;-71
2022/12/20 04:20:17;;;;;;;1.70;1.20;;;7.40;47.10;;;;;;5014368;28;20197;-69
2022/12/20 04:22:48;;;;;;;2.20;1.60;;;7.40;47.30;;;;;;5017564;28;20187;-72
2022/12/20 04:25:19;;;;;;;1.90;1.40;;;7.50;47.40;;;;;;5012016;28;20188;-71
2022/12/20 04:27:45;;;;;;;2.38;1.67;;;7.40;48.30;;;;;;5015858;28;20174;-70
2022/12/20 04:30:11;;;;;;;2.15;1.52;;;7.60;47.50;;;;;;5024193;28;20632;-72
2022/12/20 04:32:37;;;;;;;1.70;1.20;;;7.50;47.40;;;;;;5017583;28;20229;-72
2022/12/20 04:35:03;;;;;;;1.80;1.30;;;7.50;47.70;;;;;;5013619;28;20260;-71
2022/12/20 04:37:30;;;;;;;1.65;1.20;;;7.60;47.50;;;;;;5009064;28;20206;-71
2022/12/20 04:39:57;;;;;;;1.60;1.10;;;7.60;47.50;;;;;;5010660;28;20209;-71
2022/12/20 04:42:23;;;;;;;1.67;1.25;;;7.60;46.60;;;;;;5011645;28;20166;-71
2022/12/20 04:44:48;;;;;;;2.13;1.42;;;7.50;47.00;;;;;;5012065;28;20625;-71
2022/12/20 04:47:17;;;;;;;1.73;1.40;;;7.40;49.10;;;;;;5010832;28;20211;-72
2022/12/20 04:49:43;;;;;;;1.50;1.00;;;7.40;47.90;;;;;;5009846;28;20269;-72
2022/12/20 04:54:52;;;;;;;2.05;1.83;;;7.40;47.30;;;;;;5012039;28;20240;-73
2022/12/20 04:57:18;;;;;;;1.60;1.10;;;7.60;47.50;;;;;;5012108;28;20217;-71
2022/12/20 04:59:43;;;;;;;1.80;1.30;;;7.80;46.90;;;;;;5009708;28;20680;-72
2022/12/20 05:02:09;;;;;;;1.80;1.40;;;7.90;46.50;;;;;;5004985;28;20656;-73
2022/12/20 05:04:34;;;;;;;3.13;2.33;;;8.00;46.50;;;;;;5011702;28;20175;-72
2022/12/20 05:07:00;;;;;;;1.80;1.30;;;8.00;46.10;;;;;;5010026;28;20632;-71
2022/12/20 05:09:26;;;;;;;1.70;1.20;;;7.90;45.60;;;;;;5012127;28;20177;-73
2022/12/20 05:11:51;;;;;;;2.00;1.33;;;7.80;46.00;;;;;;5009884;28;20560;-73
2022/12/20 05:14:17;;;;;;;2.83;1.87;;;7.80;47.30;;;;;;5010504;28;20590;-72
2022/12/20 05:16:42;;;;;;;1.93;1.50;;;7.60;47.50;;;;;;5011734;28;20189;-71
2022/12/20 05:19:08;;;;;;;2.00;1.50;;;7.70;47.10;;;;;;5011533;28;20178;-72
2022/12/20 05:27:02;;;;;;;4.80;2.22;;;7.80;45.50;;;;;;5011570;28;20232;-72
2022/12/20 05:29:28;;;;;;;1.87;1.40;;;7.90;46.20;;;;;;5010504;28;20224;-71
2022/12/20 05:31:53;;;;;;;2.77;1.97;;;7.90;45.80;;;;;;5010863;28;20412;-73
2022/12/20 05:34:19;;;;;;;3.00;1.90;;;7.80;46.00;;;;;;5016126;28;20185;-72
2022/12/20 05:36:44;;;;;;;2.00;1.40;;;8.00;45.20;;;;;;5011409;28;20205;-73
2022/12/20 05:39:13;;;;;;;2.60;1.50;;;8.10;45.30;;;;;;5012158;28;20231;-73
2022/12/20 05:41:39;;;;;;;1.60;1.10;;;8.00;45.50;;;;;;5011771;28;20185;-71
2022/12/20 05:44:06;;;;;;;1.60;1.10;;;8.00;45.40;;;;;;5008550;28;20181;-72
2022/12/20 05:46:32;;;;;;;1.98;1.58;;;8.30;45.40;;;;;;5010189;28;20497;-73
2022/12/20 05:48:58;;;;;;;1.70;1.30;;;8.50;44.50;;;;;;5009223;28;20645;-73
2022/12/20 05:51:24;;;;;;;1.73;1.30;;;8.40;44.00;;;;;;5010019;28;20177;-72
2022/12/20 05:53:49;;;;;;;1.60;1.10;;;8.10;45.60;;;;;;5009439;28;20548;-72
2022/12/20 05:56:15;;;;;;;1.90;1.20;;;7.80;46.60;;;;;;5009870;28;20216;-72
2022/12/20 05:58:41;;;;;;;1.80;1.30;;;7.30;49.90;;;;;;5010261;28;20220;-73
2022/12/20 06:01:08;;;;;;;2.30;1.70;;;7.50;48.30;;;;;;5007283;28;20255;-73
2022/12/20 06:03:33;;;;;;;3.90;2.85;;;7.80;46.60;;;;;;5009524;28;20178;-73
2022/12/20 06:05:59;;;;;;;1.80;1.37;;;7.70;46.90;;;;;;5010604;28;20227;-72
2022/12/20 06:08:24;;;;;;;4.70;1.90;;;7.50;47.30;;;;;;5009724;28;20178;-72
2022/12/20 06:10:50;;;;;;;1.70;1.27;;;7.60;46.90;;;;;;5010745;28;20632;-73
2022/12/20 06:13:16;;;;;;;1.70;1.20;;;7.70;46.30;;;;;;5007317;28;20257;-71
2022/12/20 06:15:42;;;;;;;1.60;1.20;;;7.60;46.40;;;;;;5010752;28;20221;-71
2022/12/20 06:18:08;;;;;;;1.80;1.20;;;7.40;46.80;;;;;;5012835;28;20255;-72
2022/12/20 06:20:34;;;;;;;1.60;1.20;;;7.50;47.00;;;;;;5014584;28;20197;-73
2022/12/20 06:23:01;;;;;;;1.80;1.40;;;7.40;47.30;;;;;;5010912;28;20507;-70
2022/12/20 06:25:28;;;;;;;2.03;1.35;;;7.20;48.60;;;;;;5013116;28;20656;-73
2022/12/20 06:27:54;;;;;;;1.92;1.33;;;7.50;47.40;;;;;;5014361;28;20185;-71
2022/12/20 06:30:20;;;;;;;1.88;1.38;;;7.50;47.00;;;;;;5014269;28;20177;-73
2022/12/20 06:32:46;;;;;;;2.50;1.80;;;7.50;46.50;;;;;;5014228;28;20173;-72
2022/12/20 06:35:11;;;;;;;2.38;1.60;;;7.50;46.60;;;;;;5021815;28;20431;-73
2022/12/20 06:37:39;;;;;;;1.90;1.40;;;7.50;46.50;;;;;;5013889;28;20694;-73
2022/12/20 06:40:09;;;;;;;2.63;1.92;;;7.60;46.90;;;;;;5014579;28;20196;-84
2022/12/20 06:42:35;;;;;;;1.70;1.20;;;7.60;46.30;;;;;;5012669;28;20189;-83
2022/12/20 06:45:01;;;;;;;1.93;1.33;;;7.70;45.90;;;;;;5013700;28;20200;-85
2022/12/20 06:47:26;;;;;;;3.60;1.50;;;7.60;47.50;;;;;;5013699;28;20193;-85
2022/12/20 06:49:52;;;;;;;1.50;1.00;;;7.70;45.90;;;;;;5013811;28;20549;-85
2022/12/20 06:52:17;;;;;;;1.57;1.23;;;7.70;46.10;;;;;;5013661;28;20185;-85
2022/12/20 06:54:43;;;;;;;1.83;1.40;;;7.80;46.20;;;;;;5013630;28;20185;-84
2022/12/20 06:57:09;;;;;;;1.70;1.30;;;7.60;47.10;;;;;;5018903;28;20208;-84
2022/12/20 06:59:34;;;;;;;2.73;1.83;;;8.10;46.00;;;;;;5012971;28;20464;-74
2022/12/20 07:02:00;;;;;;;2.83;2.23;;;8.60;45.00;;;;;;5013753;28;20184;-74
2022/12/20 07:04:26;;;;;;;3.37;2.57;;;8.10;45.20;;;;;;5010447;28;20173;-72
2022/12/20 07:06:51;;;;;;;1.60;1.13;;;8.00;45.40;;;;;;5015905;28;20216;-73
2022/12/20 07:09:17;;;;;;;2.93;1.77;;;7.80;45.80;;;;;;5013713;28;20927;-73
2022/12/20 07:11:42;;;;;;;1.97;1.40;;;8.10;45.70;;;;;;5013645;28;20165;-73
2022/12/20 07:14:08;;;;;;;1.80;1.33;;;7.70;46.90;;;;;;5015328;28;20634;-73
2022/12/20 07:16:35;;;;;;;2.80;1.45;;;7.50;48.10;;;;;;5012777;28;20197;-73
2022/12/20 07:19:00;;;;;;;2.47;1.63;;;7.70;47.60;;;;;;5014103;28;20312;-73
2022/12/20 07:21:26;;;;;;;2.00;1.40;;;7.90;46.80;;;;;;5015063;28;20712;-73
2022/12/20 07:23:54;;;;;;;1.73;1.38;;;7.90;46.80;;;;;;5009997;28;20185;-74
2022/12/20 07:26:20;;;;;;;1.77;1.17;;;7.80;46.00;;;;;;5034957;28;20291;-74
2022/12/20 07:28:46;;;;;;;2.60;1.80;;;7.70;46.60;;;;;;5011764;28;20185;-72
2022/12/20 07:31:12;;;;;;;5.73;3.23;;;7.40;47.30;;;;;;5012174;28;20726;-73
2022/12/20 07:33:37;;;;;;;1.57;1.10;;;7.50;47.40;;;;;;5008172;28;20181;-73
2022/12/20 07:36:09;;;;;;;2.33;1.73;;;7.50;47.40;;;;;;5012790;28;20647;-74
2022/12/20 07:38:36;;;;;;;1.60;1.20;;;7.70;46.80;;;;;;5019094;28;20438;-74
2022/12/20 07:41:09;;;;;;;1.80;1.38;;;7.80;45.60;;;;;;5011746;28;20292;-74
2022/12/20 07:43:35;;;;;;;1.50;1.10;;;7.60;46.30;;;;;;5006168;28;20247;-74
2022/12/20 07:46:03;;;;;;;1.83;1.38;;;7.90;46.30;;;;;;5013167;28;20201;-74
2022/12/20 07:48:29;;;;;;;1.80;1.27;;;8.20;45.90;;;;;;5011584;28;20213;-72
2022/12/20 07:51:00;;;;;;;2.57;1.87;;;8.20;45.00;;;;;;5010572;28;20224;-70
2022/12/20 07:53:27;;;;;;;1.77;1.23;;;8.30;45.00;;;;;;5012760;28;20165;-72
2022/12/20 07:55:54;;;;;;;2.00;1.60;;;8.20;45.00;;;;;;5012157;28;20231;-73
2022/12/20 07:58:20;;;;;;;3.90;2.40;;;8.40;44.40;;;;;;5010664;28;20203;-72
2022/12/20 08:00:46;;;;;;;2.45;1.65;;;8.50;44.70;;;;;;5016209;28;20220;-73
2022/12/20 08:03:15;;;;;;;3.33;1.80;;;8.40;44.40;;;;;;5012568;28;20177;-73
2022/12/20 08:05:45;;;;;;;3.33;1.70;;;8.40;45.30;;;;;;5012186;28;20288;-73
2022/12/20 08:08:11;;;;;;;1.90;1.20;;;8.20;45.60;;;;;;5012224;28;20199;-74
2022/12/20 08:10:37;;;;;;;1.63;1.10;;;8.10;46.10;;;;;;5009825;28;20174;-74
2022/12/20 08:13:04;;;;;;;3.95;2.00;;;8.20;45.80;;;;;;5012205;28;20704;-73
2022/12/20 08:15:31;;;;;;;1.88;1.20;;;8.60;44.90;;;;;;5012418;28;20181;-73
2022/12/20 08:17:56;;;;;;;1.70;1.20;;;8.40;44.60;;;;;;5010324;28;20683;-73
2022/12/20 08:20:22;;;;;;;1.80;1.20;;;8.40;45.70;;;;;;5012239;28;20193;-72
2022/12/20 08:22:48;;;;;;;1.70;1.10;;;8.40;45.10;;;;;;5012384;28;20698;-72
2022/12/20 08:25:13;;;;;;;1.83;1.33;;;8.50;45.40;;;;;;5010547;28;20193;-72
2022/12/20 08:27:39;;;;;;;1.80;1.10;;;8.50;45.40;;;;;;5010355;28;20598;-73
2022/12/20 08:30:07;;;;;;;3.80;1.77;;;8.50;45.50;;;;;;5011453;28;20189;-73
2022/12/20 08:32:32;;;;;;;2.72;1.77;;;8.30;46.50;;;;;;5012288;28;20643;-73
2022/12/20 08:34:58;;;;;;;2.20;1.43;;;8.40;46.70;;;;;;5012283;28;20177;-73
2022/12/20 08:37:24;;;;;;;1.83;1.23;;;8.50;46.30;;;;;;5010211;28;20232;-73
2022/12/20 08:39:49;;;;;;;2.10;1.40;;;8.70;45.70;;;;;;5010790;28;20224;-73
2022/12/20 08:42:15;;;;;;;1.80;1.20;;;8.80;45.30;;;;;;5011804;28;20169;-73
2022/12/20 08:44:40;;;;;;;2.20;1.50;;;9.00;45.60;;;;;;5011588;28;20218;-72
2022/12/20 08:47:06;;;;;;;2.00;1.33;;;8.90;44.70;;;;;;5011136;28;20195;-72
2022/12/20 08:49:32;;;;;;;1.80;1.10;;;8.90;45.20;;;;;;5010232;28;20192;-73
2022/12/20 08:51:57;;;;;;;2.83;2.03;;;8.90;44.40;;;;;;5016336;28;20263;-73
2022/12/20 08:54:23;;;;;;;1.70;1.07;;;9.00;44.30;;;;;;5012400;28;20208;-73
2022/12/20 08:56:48;;;;;;;2.30;1.53;;;9.30;44.50;;;;;;5011867;28;20223;-72
2022/12/20 08:59:14;;;;;;;2.20;1.60;;;9.40;44.40;;;;;;5013580;28;20212;-73
2022/12/20 09:01:39;;;;;;;2.20;1.50;;;9.50;43.90;;;;;;5008419;28;20177;-73
2022/12/20 09:04:05;;;;;;;2.13;1.57;;;9.20;44.70;;;;;;5008553;28;20177;-72
2022/12/20 09:06:33;;;;;;;1.77;1.10;;;9.10;45.10;;;;;;5015670;28;20296;-72
2022/12/20 09:08:59;;;;;;;3.55;2.55;;;9.20;45.20;;;;;;5011921;28;20176;-72
2022/12/20 09:11:26;;;;;;;1.87;1.20;;;9.30;45.00;;;;;;5014887;28;20207;-72
2022/12/20 09:13:55;;;;;;;2.30;1.58;;;9.30;44.60;;;;;;5010898;28;20588;-73
2022/12/20 09:16:24;;;;;;;1.70;1.10;;;9.30;44.50;;;;;;5012781;28;20220;-72
2022/12/20 09:18:52;;;;;;;2.10;1.30;;;9.10;44.70;;;;;;5015187;28;20184;-73
2022/12/20 09:21:18;;;;;;;2.10;1.30;;;9.40;45.00;;;;;;5011448;28;20780;-72
2022/12/20 09:23:44;;;;;;;2.70;1.80;;;9.20;44.00;;;;;;5011281;28;20174;-71
2022/12/20 09:26:12;;;;;;;1.80;1.10;;;9.30;44.00;;;;;;5011357;28;20212;-73
2022/12/20 09:28:39;;;;;;;2.20;1.65;;;9.20;43.60;;;;;;5018500;28;20189;-73
2022/12/20 09:31:06;;;;;;;7.18;2.58;;;9.30;44.40;;;;;;5011231;28;20320;-72
2022/12/20 09:33:33;;;;;;;3.05;2.05;;;9.50;44.10;;;;;;5011343;28;20179;-73
2022/12/20 09:36:00;;;;;;;2.40;1.80;;;9.50;44.20;;;;;;5011260;28;20292;-71
2022/12/20 09:38:27;;;;;;;4.60;2.00;;;9.30;44.90;;;;;;5011516;28;20174;-72
2022/12/20 09:41:01;;;;;;;2.10;1.50;;;9.20;46.20;;;;;;5011245;28;20576;-71
2022/12/20 09:43:27;;;;;;;2.03;1.30;;;8.30;49.30;;;;;;5009901;28;20169;-72
2022/12/20 09:45:57;;;;;;;1.95;1.25;;;8.40;49.70;;;;;;5011325;28;20653;-73
2022/12/20 09:48:37;;;;;;;2.10;1.42;;;8.90;48.00;;;;;;5011429;28;20178;-73
2022/12/20 09:51:09;;;;;;;2.00;1.30;;;9.50;46.20;;;;;;5011017;28;20181;-72
2022/12/20 09:54:14;;;;;;;3.30;1.70;;;8.80;47.10;;;;;;5012397;28;20193;-73
2022/12/20 09:56:43;;;;;;;2.30;1.58;;;8.20;50.70;;;;;;5007647;28;20586;-73
2022/12/20 09:59:13;;;;;;;5.30;1.95;;;9.00;48.30;;;;;;5021496;28;20194;-73
2022/12/20 10:01:44;;;;;;;7.45;2.58;;;9.40;47.50;;;;;;5014611;28;20235;-72
2022/12/20 10:04:28;;;;;;;2.53;1.70;;;9.90;45.70;;;;;;5015218;28;20532;-73
2022/12/20 10:06:54;;;;;;;2.90;1.67;;;10.10;42.60;;;;;;5014569;28;20220;-71
2022/12/20 10:09:28;;;;;;;2.53;1.55;;;10.10;42.80;;;;;;5019498;28;20256;-71
2022/12/20 10:12:33;;;;;;;2.22;1.50;;;10.20;42.90;;;;;;5017956;28;20172;-73
2022/12/20 10:14:59;;;;;;;2.00;1.40;;;10.40;42.80;;;;;;5010924;28;20179;-72
2022/12/20 10:17:27;;;;;;;1.80;1.20;;;10.30;42.70;;;;;;5014799;28;20200;-73
2022/12/20 10:20:21;;;;;;;1.90;1.20;;;9.90;44.70;;;;;;5011097;28;20210;-73
2022/12/20 10:23:03;;;;;;;2.30;1.42;;;10.20;43.50;;;;;;5013860;28;20271;-74
2022/12/20 10:25:31;;;;;;;2.70;1.52;;;10.70;41.50;;;;;;5006458;28;20613;-72
2022/12/20 10:27:59;;;;;;;2.50;1.70;;;10.50;41.70;;;;;;5014434;28;20167;-72
2022/12/20 10:30:26;;;;;;;2.20;1.50;;;10.00;42.50;;;;;;5021252;28;20209;-74
2022/12/20 10:32:55;;;;;;;5.10;1.58;;;9.80;44.80;;;;;;5033220;28;20199;-74
2022/12/20 10:35:39;;;;;;;5.10;1.52;;;9.80;45.00;;;;;;5029338;28;20189;-73
2022/12/20 10:38:13;;;;;;;3.95;2.00;;;9.90;44.90;;;;;;5023892;28;20182;-72
2022/12/20 10:40:57;;;;;;;1.88;1.20;;;9.30;47.10;;;;;;5015132;28;20383;-72
2022/12/20 10:43:24;;;;;;;2.05;1.42;;;9.30;47.80;;;;;;5014739;28;20164;-72
2022/12/20 10:46:02;;;;;;;1.88;1.20;;;9.40;47.30;;;;;;5012650;28;20722;-72
2022/12/20 10:48:37;;;;;;;3.13;2.13;;;9.40;47.00;;;;;;5013964;28;20645;-72
2022/12/20 10:51:08;;;;;;;3.65;2.00;;;9.20;47.70;;;;;;5013735;28;20166;-71
2022/12/20 10:53:36;;;;;;;2.08;1.40;;;9.20;47.80;;;;;;5017479;28;20182;-72
2022/12/20 10:56:31;;;;;;;2.75;1.70;;;9.40;46.60;;;;;;5018932;28;20594;-72
2022/12/20 10:58:57;;;;;;;2.22;1.58;;;9.50;45.50;;;;;;5008535;28;20194;-71
2022/12/20 11:01:32;;;;;;;2.60;1.60;;;9.70;45.80;;;;;;5013503;28;20204;-72
2022/12/20 11:04:24;;;;;;;3.70;2.78;;;9.50;46.20;;;;;;5019484;28;20650;-72
2022/12/20 11:06:50;;;;;;;2.00;1.30;;;9.50;46.00;;;;;;5008515;28;20219;-72
2022/12/20 11:09:34;;;;;;;4.07;2.22;;;9.60;46.00;;;;;;5012364;28;20184;-72
2022/12/20 11:12:06;;;;;;;1.85;1.15;;;9.60;45.30;;;;;;5013730;28;20329;-72
2022/12/20 11:14:35;;;;;;;2.00;1.30;;;8.60;49.70;;;;;;5012136;28;20261;-72
2022/12/20 11:17:23;;;;;;;3.63;1.90;;;9.10;48.80;;;;;;5009423;28;20197;-73
2022/12/20 11:20:41;;;;;;;2.92;2.00;;;9.40;46.90;;;;;;5013430;28;20204;-73
2022/12/20 11:23:16;;;;;;;2.03;1.40;;;9.80;45.80;;;;;;5010600;28;20644;-72
2022/12/20 11:26:01;;;;;;;1.90;1.20;;;10.00;43.60;;;;;;5009493;28;20211;-73
2022/12/20 11:28:45;;;;;;;3.25;2.05;;;10.10;43.30;;;;;;5012129;28;20269;-73
2022/12/20 11:31:41;;;;;;;2.47;1.63;;;9.30;46.90;;;;;;5008156;28;20190;-73
2022/12/20 11:34:30;;;;;;;2.58;1.60;;;9.70;45.80;;;;;;5008917;28;20662;-72
2022/12/20 11:37:17;;;;;;;1.85;1.15;;;10.20;44.00;;;;;;5010859;28;20218;-73
2022/12/20 11:39:42;;;;;;;2.97;1.77;;;10.50;42.10;;;;;;5008427;28;20669;-72
2022/12/20 11:42:34;;;;;;;6.90;1.83;;;10.70;42.70;;;;;;5011603;28;20214;-73
2022/12/20 11:45:23;;;;;;;1.90;1.20;;;10.60;42.20;;;;;;5005022;28;20655;-74
2022/12/20 11:48:15;;;;;;;2.53;1.42;;;10.60;42.00;;;;;;5006189;28;20177;-72
2022/12/20 11:51:04;;;;;;;2.42;1.77;;;10.70;41.60;;;;;;5010524;28;20214;-73
2022/12/20 11:53:49;;;;;;;2.42;1.67;;;10.80;41.70;;;;;;5004806;28;20183;-73
2022/12/20 11:56:30;;;;;;;1.90;1.20;;;10.90;42.00;;;;;;5009432;28;20209;-73
2022/12/20 11:58:59;;;;;;;2.38;1.77;;;11.00;40.70;;;;;;5004529;28;20581;-73
2022/12/20 12:01:32;;;;;;;2.95;1.67;;;10.50;42.30;;;;;;5015816;28;20236;-74
2022/12/20 12:04:13;;;;;;;2.10;1.40;;;10.40;43.00;;;;;;5009563;28;20184;-73
2022/12/20 12:06:50;;;;;;;2.00;1.30;;;10.50;42.70;;;;;;5009594;28;20219;-71
2022/12/20 12:09:44;;;;;;;2.30;1.50;;;10.30;42.20;;;;;;5012193;28;20187;-73
2022/12/20 12:12:14;;;;;;;3.35;2.00;;;10.40;42.90;;;;;;5012511;28;20163;-73
2022/12/20 12:14:52;;;;;;;1.80;1.10;;;10.50;42.50;;;;;;5011148;28;20649;-74
2022/12/20 12:17:42;;;;;;;2.60;1.63;;;10.70;42.60;;;;;;5011098;28;20227;-73
2022/12/20 12:20:17;;;;;;;1.90;1.20;;;10.80;42.30;;;;;;5012073;28;20189;-73
2022/12/20 12:22:45;;;;;;;2.45;1.65;;;11.00;42.10;;;;;;5012204;28;20736;-73
2022/12/20 12:25:16;;;;;;;2.22;1.42;;;11.40;41.30;;;;;;5010948;28;20205;-73
2022/12/20 12:27:41;;;;;;;2.00;1.30;;;11.80;41.00;;;;;;5014413;28;20702;-73
2022/12/20 12:30:12;;;;;;;3.40;2.13;;;11.60;41.00;;;;;;5012003;28;20185;-73
2022/12/20 12:32:38;;;;;;;1.80;1.20;;;11.50;41.30;;;;;;5012161;28;20180;-73
2022/12/20 12:35:32;;;;;;;2.00;1.30;;;10.60;43.30;;;;;;5010328;28;20279;-72
2022/12/20 12:38:24;;;;;;;3.45;2.00;;;10.20;44.90;;;;;;4980331;28;20738;-73
2022/12/20 12:41:20;;;;;;;1.90;1.20;;;10.70;44.10;;;;;;4991179;28;20232;-71
2022/12/20 12:43:52;;;;;;;2.22;1.42;;;10.80;43.00;;;;;;5006278;28;20173;-71
2022/12/20 12:46:22;;;;;;;2.42;1.52;;;11.00;42.60;;;;;;5020624;28;20196;-73
2022/12/20 12:48:58;;;;;;;2.17;1.30;;;11.30;41.40;;;;;;5010744;28;20173;-74
2022/12/20 12:51:31;;;;;;;2.10;1.42;;;11.20;41.60;;;;;;5010037;28;20188;-73
2022/12/20 12:54:09;;;;;;;3.17;2.00;;;11.40;41.20;;;;;;5011729;28;20273;-72
2022/12/20 12:56:47;;;;;;;1.80;1.10;;;11.60;41.10;;;;;;5006143;28;20848;-72
2022/12/20 12:59:39;;;;;;;1.70;1.00;;;12.20;39.30;;;;;;5010479;28;20517;-72
2022/12/20 13:02:13;;;;;;;2.10;1.42;;;12.30;38.60;;;;;;5014067;28;20184;-72
2022/12/20 13:04:54;;;;;;;1.77;1.10;;;11.90;39.40;;;;;;5011887;28;20219;-72
2022/12/20 13:07:45;;;;;;;2.70;1.60;;;12.00;39.90;;;;;;5011737;28;20695;-72
2022/12/20 13:10:13;;;;;;;2.10;1.42;;;11.90;39.60;;;;;;5010705;28;20199;-71
2022/12/20 13:12:38;;;;;;;2.15;1.40;;;11.80;40.10;;;;;;5013014;28;20186;-71
2022/12/20 13:15:19;;;;;;;2.57;1.60;;;11.60;40.20;;;;;;5022918;28;20549;-72
2022/12/20 13:17:56;;;;;;;1.90;1.40;;;11.50;40.00;;;;;;5030777;28;20196;-72
2022/12/20 13:20:31;;;;;;;2.30;1.42;;;11.40;40.60;;;;;;5024373;28;20200;-72
2022/12/20 13:23:11;;;;;;;1.83;1.20;;;11.10;41.80;;;;;;5009489;28;20591;-71
2022/12/20 13:25:42;;;;;;;1.98;1.42;;;11.00;42.20;;;;;;5004646;28;20181;-71